sensor_id;sensor_type;location;lat;lon;timestamp;P1;durP1;ratioP1;P2;durP2;ratioP2
32080;SDS011;18593;51.426;7.030;2022-07-18T00:01:11;7.57;;;2.13;;
32080;SDS011;18593;51.426;7.030;2022-07-18T00:03:38;5.78;;;1.90;;
32080;SDS011;18593;51.426;7.030;2022-07-18T00:06:06;7.30;;;2.08;;
32080;SDS011;18593;51.426;7.030;2022-07-18T00:08:34;5.28;;;1.90;;
32080;SDS011;18593;51.426;7.030;2022-07-18T00:11:01;4.70;;;2.08;;
32080;SDS011;18593;51.426;7.030;2022-07-18T00:13:28;4.80;;;1.95;;
32080;SDS011;18593;51.426;7.030;2022-07-18T00:15:55;5.15;;;1.75;;
32080;SDS011;18593;51.426;7.030;2022-07-18T00:18:23;4.18;;;1.80;;
32080;SDS011;18593;51.426;7.030;2022-07-18T00:20:50;4.75;;;2.17;;
32080;SDS011;18593;51.426;7.030;2022-07-18T00:23:18;6.82;;;2.15;;
32080;SDS011;18593;51.426;7.030;2022-07-18T00:25:46;7.63;;;2.20;;
32080;SDS011;18593;51.426;7.030;2022-07-18T00:28:14;7.00;;;1.90;;
32080;SDS011;18593;51.426;7.030;2022-07-18T00:30:41;5.72;;;2.25;;
32080;SDS011;18593;51.426;7.030;2022-07-18T00:33:09;7.55;;;2.15;;
32080;SDS011;18593;51.426;7.030;2022-07-18T00:35:37;7.97;;;2.13;;
32080;SDS011;18593;51.426;7.030;2022-07-18T00:38:05;5.25;;;2.03;;
32080;SDS011;18593;51.426;7.030;2022-07-18T00:40:33;4.10;;;2.10;;
32080;SDS011;18593;51.426;7.030;2022-07-18T00:43:01;4.45;;;1.80;;
32080;SDS011;18593;51.426;7.030;2022-07-18T00:45:29;7.00;;;2.10;;
32080;SDS011;18593;51.426;7.030;2022-07-18T00:47:56;5.22;;;2.00;;
32080;SDS011;18593;51.426;7.030;2022-07-18T00:50:23;4.75;;;2.33;;
32080;SDS011;18593;51.426;7.030;2022-07-18T00:52:51;6.00;;;2.00;;
32080;SDS011;18593;51.426;7.030;2022-07-18T00:55:18;4.05;;;1.67;;
32080;SDS011;18593;51.426;7.030;2022-07-18T00:57:46;5.45;;;2.00;;
32080;SDS011;18593;51.426;7.030;2022-07-18T01:00:14;5.65;;;1.90;;
32080;SDS011;18593;51.426;7.030;2022-07-18T01:02:59;4.85;;;2.15;;
32080;SDS011;18593;51.426;7.030;2022-07-18T01:05:26;6.05;;;2.28;;
32080;SDS011;18593;51.426;7.030;2022-07-18T01:07:53;4.78;;;1.92;;
32080;SDS011;18593;51.426;7.030;2022-07-18T01:10:21;4.85;;;1.95;;
32080;SDS011;18593;51.426;7.030;2022-07-18T01:12:49;4.63;;;1.83;;
32080;SDS011;18593;51.426;7.030;2022-07-18T01:15:17;4.93;;;2.00;;
32080;SDS011;18593;51.426;7.030;2022-07-18T01:17:44;4.82;;;1.80;;
32080;SDS011;18593;51.426;7.030;2022-07-18T01:20:11;4.60;;;1.88;;
32080;SDS011;18593;51.426;7.030;2022-07-18T01:22:40;5.85;;;2.03;;
32080;SDS011;18593;51.426;7.030;2022-07-18T01:25:08;5.55;;;2.08;;
32080;SDS011;18593;51.426;7.030;2022-07-18T01:27:36;4.80;;;2.10;;
32080;SDS011;18593;51.426;7.030;2022-07-18T01:30:04;5.72;;;2.00;;
32080;SDS011;18593;51.426;7.030;2022-07-18T01:32:32;5.10;;;1.85;;
32080;SDS011;18593;51.426;7.030;2022-07-18T01:34:59;5.40;;;1.90;;
32080;SDS011;18593;51.426;7.030;2022-07-18T01:37:27;6.00;;;2.33;;
32080;SDS011;18593;51.426;7.030;2022-07-18T01:39:55;7.15;;;1.88;;
32080;SDS011;18593;51.426;7.030;2022-07-18T01:42:23;5.40;;;2.00;;
32080;SDS011;18593;51.426;7.030;2022-07-18T01:44:50;4.80;;;2.03;;
32080;SDS011;18593;51.426;7.030;2022-07-18T01:47:17;6.25;;;1.83;;
32080;SDS011;18593;51.426;7.030;2022-07-18T01:49:44;4.43;;;2.13;;
32080;SDS011;18593;51.426;7.030;2022-07-18T01:52:11;3.95;;;1.80;;
32080;SDS011;18593;51.426;7.030;2022-07-18T01:54:38;4.13;;;1.90;;
32080;SDS011;18593;51.426;7.030;2022-07-18T01:57:07;4.85;;;1.98;;
32080;SDS011;18593;51.426;7.030;2022-07-18T01:59:34;6.32;;;2.13;;
32080;SDS011;18593;51.426;7.030;2022-07-18T02:02:02;5.00;;;1.95;;
32080;SDS011;18593;51.426;7.030;2022-07-18T02:04:34;3.38;;;1.77;;
32080;SDS011;18593;51.426;7.030;2022-07-18T02:07:20;3.92;;;1.73;;
32080;SDS011;18593;51.426;7.030;2022-07-18T02:09:47;4.38;;;1.88;;
32080;SDS011;18593;51.426;7.030;2022-07-18T02:12:15;8.52;;;2.00;;
32080;SDS011;18593;51.426;7.030;2022-07-18T02:14:43;4.50;;;1.80;;
32080;SDS011;18593;51.426;7.030;2022-07-18T02:17:10;8.65;;;1.98;;
32080;SDS011;18593;51.426;7.030;2022-07-18T02:19:38;4.10;;;1.90;;
32080;SDS011;18593;51.426;7.030;2022-07-18T02:22:05;6.22;;;1.80;;
32080;SDS011;18593;51.426;7.030;2022-07-18T02:24:32;6.15;;;2.20;;
32080;SDS011;18593;51.426;7.030;2022-07-18T02:26:59;4.90;;;1.88;;
32080;SDS011;18593;51.426;7.030;2022-07-18T02:29:28;4.88;;;1.90;;
32080;SDS011;18593;51.426;7.030;2022-07-18T02:31:55;4.00;;;1.63;;
32080;SDS011;18593;51.426;7.030;2022-07-18T02:34:22;5.25;;;1.85;;
32080;SDS011;18593;51.426;7.030;2022-07-18T02:36:49;4.38;;;1.77;;
32080;SDS011;18593;51.426;7.030;2022-07-18T02:39:17;4.75;;;1.95;;
32080;SDS011;18593;51.426;7.030;2022-07-18T02:41:44;5.00;;;1.98;;
32080;SDS011;18593;51.426;7.030;2022-07-18T02:44:12;4.93;;;2.13;;
32080;SDS011;18593;51.426;7.030;2022-07-18T02:46:41;4.95;;;1.92;;
32080;SDS011;18593;51.426;7.030;2022-07-18T02:49:08;7.13;;;2.20;;
32080;SDS011;18593;51.426;7.030;2022-07-18T02:51:52;5.05;;;1.95;;
32080;SDS011;18593;51.426;7.030;2022-07-18T02:54:20;5.63;;;1.88;;
32080;SDS011;18593;51.426;7.030;2022-07-18T02:56:51;5.43;;;1.63;;
32080;SDS011;18593;51.426;7.030;2022-07-18T02:59:19;4.73;;;1.80;;
32080;SDS011;18593;51.426;7.030;2022-07-18T03:01:48;5.55;;;1.90;;
32080;SDS011;18593;51.426;7.030;2022-07-18T03:04:15;4.45;;;1.85;;
32080;SDS011;18593;51.426;7.030;2022-07-18T03:06:42;4.72;;;1.80;;
32080;SDS011;18593;51.426;7.030;2022-07-18T03:09:10;6.53;;;1.85;;
32080;SDS011;18593;51.426;7.030;2022-07-18T03:11:37;5.63;;;2.17;;
32080;SDS011;18593;51.426;7.030;2022-07-18T03:14:04;7.35;;;2.35;;
32080;SDS011;18593;51.426;7.030;2022-07-18T03:16:32;6.28;;;1.70;;
32080;SDS011;18593;51.426;7.030;2022-07-18T03:19:00;6.43;;;1.90;;
32080;SDS011;18593;51.426;7.030;2022-07-18T03:21:28;5.63;;;1.98;;
32080;SDS011;18593;51.426;7.030;2022-07-18T03:23:55;4.47;;;1.92;;
32080;SDS011;18593;51.426;7.030;2022-07-18T03:26:23;4.13;;;1.75;;
32080;SDS011;18593;51.426;7.030;2022-07-18T03:28:50;4.68;;;1.98;;
32080;SDS011;18593;51.426;7.030;2022-07-18T03:31:17;4.03;;;1.52;;
32080;SDS011;18593;51.426;7.030;2022-07-18T03:33:44;4.50;;;1.90;;
32080;SDS011;18593;51.426;7.030;2022-07-18T03:36:13;3.75;;;1.70;;
32080;SDS011;18593;51.426;7.030;2022-07-18T03:38:40;5.10;;;1.88;;
32080;SDS011;18593;51.426;7.030;2022-07-18T03:41:08;6.00;;;2.05;;
32080;SDS011;18593;51.426;7.030;2022-07-18T03:43:36;3.42;;;1.45;;
32080;SDS011;18593;51.426;7.030;2022-07-18T03:46:03;6.00;;;1.80;;
32080;SDS011;18593;51.426;7.030;2022-07-18T03:48:31;4.65;;;1.80;;
32080;SDS011;18593;51.426;7.030;2022-07-18T03:50:59;3.83;;;1.60;;
32080;SDS011;18593;51.426;7.030;2022-07-18T03:53:28;5.82;;;1.65;;
32080;SDS011;18593;51.426;7.030;2022-07-18T03:55:56;6.50;;;2.22;;
32080;SDS011;18593;51.426;7.030;2022-07-18T03:58:24;4.30;;;1.80;;
32080;SDS011;18593;51.426;7.030;2022-07-18T04:00:51;7.65;;;1.75;;
32080;SDS011;18593;51.426;7.030;2022-07-18T04:03:19;4.60;;;1.70;;
32080;SDS011;18593;51.426;7.030;2022-07-18T04:05:46;4.25;;;1.77;;
32080;SDS011;18593;51.426;7.030;2022-07-18T04:08:14;5.03;;;1.70;;
32080;SDS011;18593;51.426;7.030;2022-07-18T04:10:43;4.97;;;1.90;;
32080;SDS011;18593;51.426;7.030;2022-07-18T04:13:11;3.67;;;1.65;;
32080;SDS011;18593;51.426;7.030;2022-07-18T04:15:38;4.93;;;1.90;;
32080;SDS011;18593;51.426;7.030;2022-07-18T04:18:07;4.45;;;1.70;;
32080;SDS011;18593;51.426;7.030;2022-07-18T04:20:35;4.63;;;1.70;;
32080;SDS011;18593;51.426;7.030;2022-07-18T04:23:05;6.63;;;1.92;;
32080;SDS011;18593;51.426;7.030;2022-07-18T04:25:35;5.53;;;1.67;;
32080;SDS011;18593;51.426;7.030;2022-07-18T04:28:07;3.63;;;1.60;;
32080;SDS011;18593;51.426;7.030;2022-07-18T04:30:37;5.53;;;1.73;;
32080;SDS011;18593;51.426;7.030;2022-07-18T04:33:06;5.90;;;1.67;;
32080;SDS011;18593;51.426;7.030;2022-07-18T04:35:35;4.72;;;1.85;;
32080;SDS011;18593;51.426;7.030;2022-07-18T04:38:04;4.90;;;1.58;;
32080;SDS011;18593;51.426;7.030;2022-07-18T04:40:33;5.65;;;1.70;;
32080;SDS011;18593;51.426;7.030;2022-07-18T04:43:01;7.28;;;1.75;;
32080;SDS011;18593;51.426;7.030;2022-07-18T04:45:30;6.78;;;1.80;;
32080;SDS011;18593;51.426;7.030;2022-07-18T04:47:58;7.70;;;2.00;;
32080;SDS011;18593;51.426;7.030;2022-07-18T04:50:26;5.85;;;2.70;;
32080;SDS011;18593;51.426;7.030;2022-07-18T04:52:55;7.38;;;4.30;;
32080;SDS011;18593;51.426;7.030;2022-07-18T04:55:23;8.05;;;3.72;;
32080;SDS011;18593;51.426;7.030;2022-07-18T04:57:52;5.38;;;2.90;;
32080;SDS011;18593;51.426;7.030;2022-07-18T05:00:20;5.55;;;2.00;;
32080;SDS011;18593;51.426;7.030;2022-07-18T05:02:51;4.93;;;2.40;;
32080;SDS011;18593;51.426;7.030;2022-07-18T05:05:21;8.13;;;2.40;;
32080;SDS011;18593;51.426;7.030;2022-07-18T05:07:50;9.32;;;2.35;;
32080;SDS011;18593;51.426;7.030;2022-07-18T05:10:18;4.85;;;1.98;;
32080;SDS011;18593;51.426;7.030;2022-07-18T05:12:47;6.78;;;1.95;;
32080;SDS011;18593;51.426;7.030;2022-07-18T05:15:18;7.00;;;2.30;;
32080;SDS011;18593;51.426;7.030;2022-07-18T05:17:47;7.22;;;2.42;;
32080;SDS011;18593;51.426;7.030;2022-07-18T05:20:17;8.02;;;2.35;;
32080;SDS011;18593;51.426;7.030;2022-07-18T05:22:48;5.30;;;2.33;;
32080;SDS011;18593;51.426;7.030;2022-07-18T05:25:16;6.65;;;2.05;;
32080;SDS011;18593;51.426;7.030;2022-07-18T05:27:45;11.23;;;2.97;;
32080;SDS011;18593;51.426;7.030;2022-07-18T05:30:12;13.85;;;2.92;;
32080;SDS011;18593;51.426;7.030;2022-07-18T05:32:41;9.95;;;2.83;;
32080;SDS011;18593;51.426;7.030;2022-07-18T05:35:09;17.27;;;2.63;;
32080;SDS011;18593;51.426;7.030;2022-07-18T05:37:39;11.35;;;2.60;;
32080;SDS011;18593;51.426;7.030;2022-07-18T05:40:08;7.70;;;2.70;;
32080;SDS011;18593;51.426;7.030;2022-07-18T05:42:37;8.65;;;3.15;;
32080;SDS011;18593;51.426;7.030;2022-07-18T05:45:05;12.57;;;3.20;;
32080;SDS011;18593;51.426;7.030;2022-07-18T05:47:34;12.93;;;2.88;;
32080;SDS011;18593;51.426;7.030;2022-07-18T05:50:01;10.05;;;2.78;;
32080;SDS011;18593;51.426;7.030;2022-07-18T05:52:29;9.93;;;2.17;;
32080;SDS011;18593;51.426;7.030;2022-07-18T05:54:58;9.20;;;2.42;;
32080;SDS011;18593;51.426;7.030;2022-07-18T05:57:25;9.48;;;2.25;;
32080;SDS011;18593;51.426;7.030;2022-07-18T05:59:53;13.30;;;2.70;;
32080;SDS011;18593;51.426;7.030;2022-07-18T06:02:20;9.63;;;2.35;;
32080;SDS011;18593;51.426;7.030;2022-07-18T06:04:47;11.80;;;2.55;;
32080;SDS011;18593;51.426;7.030;2022-07-18T06:07:15;6.20;;;2.38;;
32080;SDS011;18593;51.426;7.030;2022-07-18T06:09:42;13.40;;;2.40;;
32080;SDS011;18593;51.426;7.030;2022-07-18T06:12:10;6.72;;;2.60;;
32080;SDS011;18593;51.426;7.030;2022-07-18T06:14:38;7.68;;;2.25;;
32080;SDS011;18593;51.426;7.030;2022-07-18T06:17:05;11.43;;;2.83;;
32080;SDS011;18593;51.426;7.030;2022-07-18T06:19:33;7.10;;;2.50;;
32080;SDS011;18593;51.426;7.030;2022-07-18T06:22:00;7.25;;;2.20;;
32080;SDS011;18593;51.426;7.030;2022-07-18T06:24:28;7.60;;;2.20;;
32080;SDS011;18593;51.426;7.030;2022-07-18T06:26:55;6.45;;;2.50;;
32080;SDS011;18593;51.426;7.030;2022-07-18T06:29:24;8.90;;;2.30;;
32080;SDS011;18593;51.426;7.030;2022-07-18T06:31:51;6.63;;;2.30;;
32080;SDS011;18593;51.426;7.030;2022-07-18T06:34:18;6.55;;;2.08;;
32080;SDS011;18593;51.426;7.030;2022-07-18T06:36:45;6.68;;;2.40;;
32080;SDS011;18593;51.426;7.030;2022-07-18T06:39:12;9.75;;;2.50;;
32080;SDS011;18593;51.426;7.030;2022-07-18T06:41:41;10.00;;;2.00;;
32080;SDS011;18593;51.426;7.030;2022-07-18T06:44:12;10.77;;;2.00;;
32080;SDS011;18593;51.426;7.030;2022-07-18T06:46:41;6.63;;;2.00;;
32080;SDS011;18593;51.426;7.030;2022-07-18T06:49:08;5.35;;;2.00;;
32080;SDS011;18593;51.426;7.030;2022-07-18T06:51:35;7.50;;;1.80;;
32080;SDS011;18593;51.426;7.030;2022-07-18T06:54:03;6.35;;;1.88;;
32080;SDS011;18593;51.426;7.030;2022-07-18T06:56:30;5.45;;;1.52;;
32080;SDS011;18593;51.426;7.030;2022-07-18T06:58:57;4.32;;;1.50;;
32080;SDS011;18593;51.426;7.030;2022-07-18T07:01:24;10.70;;;1.92;;
32080;SDS011;18593;51.426;7.030;2022-07-18T07:03:53;6.28;;;1.77;;
32080;SDS011;18593;51.426;7.030;2022-07-18T07:06:20;4.93;;;1.83;;
32080;SDS011;18593;51.426;7.030;2022-07-18T07:08:47;5.93;;;1.77;;
32080;SDS011;18593;51.426;7.030;2022-07-18T07:11:14;4.15;;;1.48;;
32080;SDS011;18593;51.426;7.030;2022-07-18T07:13:41;4.85;;;1.70;;
32080;SDS011;18593;51.426;7.030;2022-07-18T07:16:09;6.55;;;1.42;;
32080;SDS011;18593;51.426;7.030;2022-07-18T07:18:36;5.78;;;1.45;;
32080;SDS011;18593;51.426;7.030;2022-07-18T07:21:04;4.40;;;1.15;;
32080;SDS011;18593;51.426;7.030;2022-07-18T07:23:33;5.60;;;1.33;;
32080;SDS011;18593;51.426;7.030;2022-07-18T07:26:00;3.78;;;1.30;;
32080;SDS011;18593;51.426;7.030;2022-07-18T07:28:27;6.00;;;1.60;;
32080;SDS011;18593;51.426;7.030;2022-07-18T07:30:55;5.60;;;1.33;;
32080;SDS011;18593;51.426;7.030;2022-07-18T07:33:22;3.70;;;1.58;;
32080;SDS011;18593;51.426;7.030;2022-07-18T07:35:49;5.47;;;1.50;;
32080;SDS011;18593;51.426;7.030;2022-07-18T07:38:18;4.93;;;1.40;;
32080;SDS011;18593;51.426;7.030;2022-07-18T07:40:47;4.45;;;1.50;;
32080;SDS011;18593;51.426;7.030;2022-07-18T07:43:15;5.78;;;1.30;;
32080;SDS011;18593;51.426;7.030;2022-07-18T07:45:45;6.38;;;1.77;;
32080;SDS011;18593;51.426;7.030;2022-07-18T07:48:14;6.15;;;1.60;;
32080;SDS011;18593;51.426;7.030;2022-07-18T07:50:41;5.93;;;1.85;;
32080;SDS011;18593;51.426;7.030;2022-07-18T07:53:09;11.45;;;1.83;;
32080;SDS011;18593;51.426;7.030;2022-07-18T07:55:38;6.68;;;1.77;;
32080;SDS011;18593;51.426;7.030;2022-07-18T07:58:05;6.50;;;1.60;;
32080;SDS011;18593;51.426;7.030;2022-07-18T08:00:32;13.13;;;1.75;;
32080;SDS011;18593;51.426;7.030;2022-07-18T08:03:00;5.70;;;1.40;;
32080;SDS011;18593;51.426;7.030;2022-07-18T08:05:30;4.53;;;1.45;;
32080;SDS011;18593;51.426;7.030;2022-07-18T08:08:00;7.68;;;1.60;;
32080;SDS011;18593;51.426;7.030;2022-07-18T08:10:28;6.05;;;1.52;;
32080;SDS011;18593;51.426;7.030;2022-07-18T08:12:58;8.63;;;1.50;;
32080;SDS011;18593;51.426;7.030;2022-07-18T08:15:25;6.47;;;1.60;;
32080;SDS011;18593;51.426;7.030;2022-07-18T08:17:53;6.03;;;1.55;;
32080;SDS011;18593;51.426;7.030;2022-07-18T08:20:21;5.82;;;1.40;;
32080;SDS011;18593;51.426;7.030;2022-07-18T08:22:52;4.07;;;1.30;;
32080;SDS011;18593;51.426;7.030;2022-07-18T08:25:22;6.63;;;1.60;;
32080;SDS011;18593;51.426;7.030;2022-07-18T08:27:51;6.25;;;1.40;;
32080;SDS011;18593;51.426;7.030;2022-07-18T08:30:19;4.30;;;1.15;;
32080;SDS011;18593;51.426;7.030;2022-07-18T08:32:47;4.90;;;1.33;;
32080;SDS011;18593;51.426;7.030;2022-07-18T08:35:14;7.22;;;1.55;;
32080;SDS011;18593;51.426;7.030;2022-07-18T08:37:42;4.93;;;1.25;;
32080;SDS011;18593;51.426;7.030;2022-07-18T08:40:09;8.70;;;1.48;;
32080;SDS011;18593;51.426;7.030;2022-07-18T08:42:37;7.30;;;1.30;;
32080;SDS011;18593;51.426;7.030;2022-07-18T08:45:05;6.57;;;1.60;;
32080;SDS011;18593;51.426;7.030;2022-07-18T08:47:36;7.00;;;1.55;;
32080;SDS011;18593;51.426;7.030;2022-07-18T08:50:04;7.55;;;1.65;;
32080;SDS011;18593;51.426;7.030;2022-07-18T08:52:32;5.22;;;1.60;;
32080;SDS011;18593;51.426;7.030;2022-07-18T08:55:01;6.68;;;1.40;;
32080;SDS011;18593;51.426;7.030;2022-07-18T08:57:29;3.42;;;1.30;;
32080;SDS011;18593;51.426;7.030;2022-07-18T08:59:56;4.45;;;1.30;;
32080;SDS011;18593;51.426;7.030;2022-07-18T09:02:24;4.28;;;1.20;;
32080;SDS011;18593;51.426;7.030;2022-07-18T09:04:54;3.70;;;1.42;;
32080;SDS011;18593;51.426;7.030;2022-07-18T09:07:25;3.33;;;1.15;;
32080;SDS011;18593;51.426;7.030;2022-07-18T09:09:55;5.85;;;1.60;;
32080;SDS011;18593;51.426;7.030;2022-07-18T09:12:24;3.40;;;1.20;;
32080;SDS011;18593;51.426;7.030;2022-07-18T09:14:52;3.97;;;1.20;;
32080;SDS011;18593;51.426;7.030;2022-07-18T09:17:22;3.40;;;1.50;;
32080;SDS011;18593;51.426;7.030;2022-07-18T09:19:59;3.90;;;1.30;;
32080;SDS011;18593;51.426;7.030;2022-07-18T09:22:32;3.92;;;1.40;;
32080;SDS011;18593;51.426;7.030;2022-07-18T09:25:04;4.07;;;1.50;;
32080;SDS011;18593;51.426;7.030;2022-07-18T09:27:36;4.05;;;1.10;;
32080;SDS011;18593;51.426;7.030;2022-07-18T09:33:05;5.60;;;1.55;;
32080;SDS011;18593;51.426;7.030;2022-07-18T09:35:36;4.75;;;1.40;;
32080;SDS011;18593;51.426;7.030;2022-07-18T09:38:10;5.32;;;1.60;;
32080;SDS011;18593;51.426;7.030;2022-07-18T09:40:39;5.60;;;1.40;;
32080;SDS011;18593;51.426;7.030;2022-07-18T09:43:09;3.60;;;1.38;;
32080;SDS011;18593;51.426;7.030;2022-07-18T09:45:39;3.45;;;1.33;;
32080;SDS011;18593;51.426;7.030;2022-07-18T09:48:09;5.20;;;1.48;;
32080;SDS011;18593;51.426;7.030;2022-07-18T09:50:40;5.53;;;1.40;;
32080;SDS011;18593;51.426;7.030;2022-07-18T09:53:11;3.13;;;1.33;;
32080;SDS011;18593;51.426;7.030;2022-07-18T09:55:41;5.38;;;1.70;;
32080;SDS011;18593;51.426;7.030;2022-07-18T09:58:10;3.80;;;1.50;;
32080;SDS011;18593;51.426;7.030;2022-07-18T10:00:38;3.42;;;1.25;;
32080;SDS011;18593;51.426;7.030;2022-07-18T10:03:07;5.03;;;1.50;;
32080;SDS011;18593;51.426;7.030;2022-07-18T10:05:35;6.03;;;1.70;;
32080;SDS011;18593;51.426;7.030;2022-07-18T10:08:06;3.33;;;1.48;;
32080;SDS011;18593;51.426;7.030;2022-07-18T10:10:37;4.03;;;1.58;;
32080;SDS011;18593;51.426;7.030;2022-07-18T10:13:05;6.22;;;1.63;;
32080;SDS011;18593;51.426;7.030;2022-07-18T10:15:34;4.22;;;1.35;;
32080;SDS011;18593;51.426;7.030;2022-07-18T10:18:04;6.90;;;1.50;;
32080;SDS011;18593;51.426;7.030;2022-07-18T10:20:34;6.40;;;1.48;;
32080;SDS011;18593;51.426;7.030;2022-07-18T10:23:10;4.75;;;1.30;;
32080;SDS011;18593;51.426;7.030;2022-07-18T10:25:43;6.78;;;1.38;;
32080;SDS011;18593;51.426;7.030;2022-07-18T10:28:29;7.85;;;1.42;;
32080;SDS011;18593;51.426;7.030;2022-07-18T10:30:57;3.70;;;1.20;;
32080;SDS011;18593;51.426;7.030;2022-07-18T10:33:41;5.75;;;1.55;;
32080;SDS011;18593;51.426;7.030;2022-07-18T10:36:11;4.13;;;1.63;;
32080;SDS011;18593;51.426;7.030;2022-07-18T10:41:32;5.80;;;1.55;;
32080;SDS011;18593;51.426;7.030;2022-07-18T10:44:32;5.20;;;1.40;;
32080;SDS011;18593;51.426;7.030;2022-07-18T10:47:02;3.47;;;1.40;;
32080;SDS011;18593;51.426;7.030;2022-07-18T10:52:54;4.35;;;1.55;;
32080;SDS011;18593;51.426;7.030;2022-07-18T10:55:31;4.53;;;1.45;;
32080;SDS011;18593;51.426;7.030;2022-07-18T10:58:16;3.33;;;1.45;;
32080;SDS011;18593;51.426;7.030;2022-07-18T11:00:46;4.00;;;1.50;;
32080;SDS011;18593;51.426;7.030;2022-07-18T11:03:19;12.43;;;5.78;;
32080;SDS011;18593;51.426;7.030;2022-07-18T11:05:54;6.68;;;1.70;;
32080;SDS011;18593;51.426;7.030;2022-07-18T11:08:23;6.65;;;1.40;;
32080;SDS011;18593;51.426;7.030;2022-07-18T11:11:04;5.68;;;1.40;;
32080;SDS011;18593;51.426;7.030;2022-07-18T11:13:38;4.10;;;1.40;;
32080;SDS011;18593;51.426;7.030;2022-07-18T11:16:09;3.20;;;1.40;;
32080;SDS011;18593;51.426;7.030;2022-07-18T11:21:45;4.88;;;1.55;;
32080;SDS011;18593;51.426;7.030;2022-07-18T11:24:21;6.32;;;1.60;;
32080;SDS011;18593;51.426;7.030;2022-07-18T11:26:50;4.35;;;1.60;;
32080;SDS011;18593;51.426;7.030;2022-07-18T11:29:18;4.18;;;1.70;;
32080;SDS011;18593;51.426;7.030;2022-07-18T11:31:47;3.83;;;1.70;;
32080;SDS011;18593;51.426;7.030;2022-07-18T11:34:16;3.72;;;1.60;;
32080;SDS011;18593;51.426;7.030;2022-07-18T11:36:45;5.95;;;1.60;;
32080;SDS011;18593;51.426;7.030;2022-07-18T11:39:13;4.60;;;1.80;;
32080;SDS011;18593;51.426;7.030;2022-07-18T11:41:55;5.23;;;1.70;;
32080;SDS011;18593;51.426;7.030;2022-07-18T11:44:22;5.57;;;1.70;;
32080;SDS011;18593;51.426;7.030;2022-07-18T11:47:00;5.00;;;1.50;;
32080;SDS011;18593;51.426;7.030;2022-07-18T11:49:32;8.15;;;2.10;;
32080;SDS011;18593;51.426;7.030;2022-07-18T11:52:00;5.72;;;1.73;;
32080;SDS011;18593;51.426;7.030;2022-07-18T11:54:27;6.30;;;2.08;;
32080;SDS011;18593;51.426;7.030;2022-07-18T11:56:59;6.88;;;2.35;;
32080;SDS011;18593;51.426;7.030;2022-07-18T11:59:34;5.70;;;2.38;;
32080;SDS011;18593;51.426;7.030;2022-07-18T12:02:04;8.10;;;2.55;;
32080;SDS011;18593;51.426;7.030;2022-07-18T12:04:32;6.80;;;1.90;;
32080;SDS011;18593;51.426;7.030;2022-07-18T12:07:12;3.85;;;1.77;;
32080;SDS011;18593;51.426;7.030;2022-07-18T12:09:41;5.80;;;1.83;;
32080;SDS011;18593;51.426;7.030;2022-07-18T12:12:11;5.47;;;1.77;;
32080;SDS011;18593;51.426;7.030;2022-07-18T12:14:39;4.97;;;1.65;;
32080;SDS011;18593;51.426;7.030;2022-07-18T12:17:06;6.03;;;1.73;;
32080;SDS011;18593;51.426;7.030;2022-07-18T12:19:35;8.60;;;1.58;;
32080;SDS011;18593;51.426;7.030;2022-07-18T12:22:05;4.68;;;1.83;;
32080;SDS011;18593;51.426;7.030;2022-07-18T12:24:35;7.43;;;1.77;;
32080;SDS011;18593;51.426;7.030;2022-07-18T12:27:13;5.00;;;1.60;;
32080;SDS011;18593;51.426;7.030;2022-07-18T12:32:37;5.43;;;1.80;;
32080;SDS011;18593;51.426;7.030;2022-07-18T12:35:08;6.25;;;1.73;;
32080;SDS011;18593;51.426;7.030;2022-07-18T12:37:37;7.97;;;1.67;;
32080;SDS011;18593;51.426;7.030;2022-07-18T12:40:07;6.70;;;1.40;;
32080;SDS011;18593;51.426;7.030;2022-07-18T12:42:39;5.95;;;1.65;;
32080;SDS011;18593;51.426;7.030;2022-07-18T12:45:08;5.22;;;1.60;;
32080;SDS011;18593;51.426;7.030;2022-07-18T12:47:37;7.68;;;1.85;;
32080;SDS011;18593;51.426;7.030;2022-07-18T12:50:05;6.22;;;1.77;;
32080;SDS011;18593;51.426;7.030;2022-07-18T12:52:33;7.78;;;1.95;;
32080;SDS011;18593;51.426;7.030;2022-07-18T12:55:01;5.93;;;1.60;;
32080;SDS011;18593;51.426;7.030;2022-07-18T12:57:28;5.75;;;1.60;;
32080;SDS011;18593;51.426;7.030;2022-07-18T12:59:56;5.13;;;1.90;;
32080;SDS011;18593;51.426;7.030;2022-07-18T13:02:23;4.78;;;1.77;;
32080;SDS011;18593;51.426;7.030;2022-07-18T13:04:51;5.47;;;1.50;;
32080;SDS011;18593;51.426;7.030;2022-07-18T13:07:18;4.57;;;1.33;;
32080;SDS011;18593;51.426;7.030;2022-07-18T13:09:45;9.35;;;2.35;;
32080;SDS011;18593;51.426;7.030;2022-07-18T13:12:12;5.55;;;1.70;;
32080;SDS011;18593;51.426;7.030;2022-07-18T13:14:40;6.55;;;1.73;;
32080;SDS011;18593;51.426;7.030;2022-07-18T13:17:09;4.22;;;1.40;;
32080;SDS011;18593;51.426;7.030;2022-07-18T13:19:36;4.50;;;1.65;;
32080;SDS011;18593;51.426;7.030;2022-07-18T13:22:04;4.80;;;1.60;;
32080;SDS011;18593;51.426;7.030;2022-07-18T13:24:31;4.18;;;1.63;;
32080;SDS011;18593;51.426;7.030;2022-07-18T13:26:58;5.88;;;1.83;;
32080;SDS011;18593;51.426;7.030;2022-07-18T13:29:25;6.30;;;1.92;;
32080;SDS011;18593;51.426;7.030;2022-07-18T13:31:53;5.03;;;1.65;;
32080;SDS011;18593;51.426;7.030;2022-07-18T13:34:22;6.90;;;1.75;;
32080;SDS011;18593;51.426;7.030;2022-07-18T13:36:50;4.38;;;1.75;;
32080;SDS011;18593;51.426;7.030;2022-07-18T13:39:20;7.40;;;1.65;;
32080;SDS011;18593;51.426;7.030;2022-07-18T13:41:48;6.40;;;1.60;;
32080;SDS011;18593;51.426;7.030;2022-07-18T13:44:16;6.97;;;1.75;;
32080;SDS011;18593;51.426;7.030;2022-07-18T13:46:43;4.40;;;1.85;;
32080;SDS011;18593;51.426;7.030;2022-07-18T13:49:10;4.85;;;1.60;;
32080;SDS011;18593;51.426;7.030;2022-07-18T13:51:39;5.80;;;1.40;;
32080;SDS011;18593;51.426;7.030;2022-07-18T13:54:07;6.22;;;1.38;;
32080;SDS011;18593;51.426;7.030;2022-07-18T13:56:34;3.90;;;1.48;;
32080;SDS011;18593;51.426;7.030;2022-07-18T13:59:01;4.03;;;1.40;;
32080;SDS011;18593;51.426;7.030;2022-07-18T14:01:28;3.60;;;1.40;;
32080;SDS011;18593;51.426;7.030;2022-07-18T14:03:55;6.80;;;1.60;;
32080;SDS011;18593;51.426;7.030;2022-07-18T14:06:23;3.95;;;1.48;;
32080;SDS011;18593;51.426;7.030;2022-07-18T14:08:51;4.47;;;1.52;;
32080;SDS011;18593;51.426;7.030;2022-07-18T14:11:18;6.63;;;1.50;;
32080;SDS011;18593;51.426;7.030;2022-07-18T14:13:46;4.18;;;1.52;;
32080;SDS011;18593;51.426;7.030;2022-07-18T14:16:13;4.10;;;1.38;;
32080;SDS011;18593;51.426;7.030;2022-07-18T14:18:41;3.42;;;1.50;;
32080;SDS011;18593;51.426;7.030;2022-07-18T14:21:08;6.90;;;1.50;;
32080;SDS011;18593;51.426;7.030;2022-07-18T14:23:35;6.00;;;1.73;;
32080;SDS011;18593;51.426;7.030;2022-07-18T14:26:04;7.05;;;1.67;;
32080;SDS011;18593;51.426;7.030;2022-07-18T14:28:31;5.85;;;1.67;;
32080;SDS011;18593;51.426;7.030;2022-07-18T14:30:58;4.90;;;1.48;;
32080;SDS011;18593;51.426;7.030;2022-07-18T14:33:25;5.10;;;1.52;;
32080;SDS011;18593;51.426;7.030;2022-07-18T14:35:52;5.15;;;1.33;;
32080;SDS011;18593;51.426;7.030;2022-07-18T14:38:20;3.78;;;1.30;;
32080;SDS011;18593;51.426;7.030;2022-07-18T14:40:47;4.18;;;1.48;;
32080;SDS011;18593;51.426;7.030;2022-07-18T14:43:15;3.47;;;1.33;;
32080;SDS011;18593;51.426;7.030;2022-07-18T14:45:43;8.05;;;1.80;;
32080;SDS011;18593;51.426;7.030;2022-07-18T14:48:10;5.18;;;1.50;;
32080;SDS011;18593;51.426;7.030;2022-07-18T14:50:37;5.60;;;1.33;;
32080;SDS011;18593;51.426;7.030;2022-07-18T14:53:04;3.00;;;1.25;;
32080;SDS011;18593;51.426;7.030;2022-07-18T14:55:32;5.38;;;1.60;;
32080;SDS011;18593;51.426;7.030;2022-07-18T14:57:59;5.15;;;1.70;;
32080;SDS011;18593;51.426;7.030;2022-07-18T15:00:29;5.13;;;1.35;;
32080;SDS011;18593;51.426;7.030;2022-07-18T15:02:56;6.20;;;1.67;;
32080;SDS011;18593;51.426;7.030;2022-07-18T15:05:23;4.03;;;1.30;;
32080;SDS011;18593;51.426;7.030;2022-07-18T15:07:50;4.47;;;1.45;;
32080;SDS011;18593;51.426;7.030;2022-07-18T15:10:18;4.18;;;1.73;;
32080;SDS011;18593;51.426;7.030;2022-07-18T15:12:45;4.40;;;1.50;;